sensor_id;sensor_type;location;lat;lon;timestamp;pressure;altitude;pressure_sealevel;temperature;humidity
68329;BME280;55182;56.864;60.554;2023-05-23T00:01:03;75375.28;;;-143.60;68.27
68329;BME280;55182;56.864;60.554;2023-05-23T00:03:29;75371.25;;;-143.60;67.94
68329;BME280;55182;56.864;60.554;2023-05-23T00:05:54;75367.25;;;-143.60;67.27
68329;BME280;55182;56.864;60.554;2023-05-23T00:08:20;75367.25;;;-143.60;67.39
68329;BME280;55182;56.864;60.554;2023-05-23T00:10:45;75369.25;;;-143.60;68.39
68329;BME280;55182;56.864;60.554;2023-05-23T00:13:11;75383.31;;;-143.60;68.92
68329;BME280;55182;56.864;60.554;2023-05-23T00:15:37;75395.38;;;-143.60;69.34
68329;BME280;55182;56.864;60.554;2023-05-23T00:18:03;75401.41;;;-143.60;70.01
68329;BME280;55182;56.864;60.554;2023-05-23T00:20:28;75411.44;;;-143.60;70.26
68329;BME280;55182;56.864;60.554;2023-05-23T00:22:54;75417.47;;;-143.60;71.51
68329;BME280;55182;56.864;60.554;2023-05-23T00:25:19;75413.44;;;-143.60;72.50
68329;BME280;55182;56.864;60.554;2023-05-23T00:27:45;75405.41;;;-143.60;73.51
68329;BME280;55182;56.864;60.554;2023-05-23T00:30:10;75407.44;;;-143.60;74.37
68329;BME280;55182;56.864;60.554;2023-05-23T00:32:36;75399.38;;;-143.60;74.93
68329;BME280;55182;56.864;60.554;2023-05-23T00:35:01;75399.38;;;-143.60;75.58
68329;BME280;55182;56.864;60.554;2023-05-23T00:37:27;75397.38;;;-143.60;76.30
68329;BME280;55182;56.864;60.554;2023-05-23T00:39:52;75399.38;;;-143.60;76.18
68329;BME280;55182;56.864;60.554;2023-05-23T00:42:18;75401.41;;;-143.60;76.20
68329;BME280;55182;56.864;60.554;2023-05-23T00:44:43;75413.44;;;-143.60;76.78
68329;BME280;55182;56.864;60.554;2023-05-23T00:47:09;75425.50;;;-143.60;77.92
68329;BME280;55182;56.864;60.554;2023-05-23T00:49:34;75427.50;;;-143.60;78.06
68329;BME280;55182;56.864;60.554;2023-05-23T00:52:00;75441.59;;;-143.60;78.11
68329;BME280;55182;56.864;60.554;2023-05-23T00:54:27;75447.59;;;-143.60;77.29
68329;BME280;55182;56.864;60.554;2023-05-23T00:56:53;75443.59;;;-143.60;77.00
68329;BME280;55182;56.864;60.554;2023-05-23T00:59:18;75439.56;;;-143.60;76.79
68329;BME280;55182;56.864;60.554;2023-05-23T01:01:44;75435.56;;;-143.60;76.44
68329;BME280;55182;56.864;60.554;2023-05-23T01:04:09;75443.59;;;-143.60;76.66
68329;BME280;55182;56.864;60.554;2023-05-23T01:06:35;75437.56;;;-143.60;76.24
68329;BME280;55182;56.864;60.554;2023-05-23T01:09:00;75439.56;;;-143.60;76.20
68329;BME280;55182;56.864;60.554;2023-05-23T01:11:32;75439.56;;;-143.60;75.81
68329;BME280;55182;56.864;60.554;2023-05-23T01:16:57;75435.56;;;-143.60;75.77
68329;BME280;55182;56.864;60.554;2023-05-23T01:21:52;75427.50;;;-143.60;76.18
68329;BME280;55182;56.864;60.554;2023-05-23T01:24:35;75427.50;;;-143.60;76.95
68329;BME280;55182;56.864;60.554;2023-05-23T01:27:13;75419.47;;;-143.60;77.41
68329;BME280;55182;56.864;60.554;2023-05-23T01:29:46;75415.47;;;-143.60;78.09
68329;BME280;55182;56.864;60.554;2023-05-23T01:32:14;75411.44;;;-143.60;78.56
68329;BME280;55182;56.864;60.554;2023-05-23T01:34:40;75407.44;;;-143.60;78.20
68329;BME280;55182;56.864;60.554;2023-05-23T01:37:09;75401.41;;;-143.60;78.21
68329;BME280;55182;56.864;60.554;2023-05-23T01:39:35;75391.34;;;-143.60;77.94
68329;BME280;55182;56.864;60.554;2023-05-23T01:42:01;75385.31;;;-143.60;77.76
68329;BME280;55182;56.864;60.554;2023-05-23T01:44:27;75383.31;;;-143.60;77.60
68329;BME280;55182;56.864;60.554;2023-05-23T01:46:53;75373.28;;;-143.60;76.50
68329;BME280;55182;56.864;60.554;2023-05-23T01:49:20;75365.22;;;-143.60;75.44
68329;BME280;55182;56.864;60.554;2023-05-23T01:51:47;75355.19;;;-143.60;74.30
68329;BME280;55182;56.864;60.554;2023-05-23T01:54:13;75351.16;;;-143.60;73.80
68329;BME280;55182;56.864;60.554;2023-05-23T01:56:39;75343.13;;;-143.60;72.88
68329;BME280;55182;56.864;60.554;2023-05-23T01:59:05;75331.06;;;-143.60;71.82
68329;BME280;55182;56.864;60.554;2023-05-23T02:01:31;75321.03;;;-143.60;70.67
68329;BME280;55182;56.864;60.554;2023-05-23T02:03:57;75315.00;;;-143.60;70.44
68329;BME280;55182;56.864;60.554;2023-05-23T02:06:23;75304.97;;;-143.60;69.70
68329;BME280;55182;56.864;60.554;2023-05-23T02:08:48;75298.94;;;-143.60;67.52
68329;BME280;55182;56.864;60.554;2023-05-23T02:11:13;75282.88;;;-143.60;66.78
68329;BME280;55182;56.864;60.554;2023-05-23T02:13:39;75270.81;;;-143.60;66.37
68329;BME280;55182;56.864;60.554;2023-05-23T02:16:04;75262.78;;;-143.60;66.15
68329;BME280;55182;56.864;60.554;2023-05-23T02:18:30;75254.72;;;-143.60;66.43
68329;BME280;55182;56.864;60.554;2023-05-23T02:20:55;75244.69;;;-143.60;65.02
68329;BME280;55182;56.864;60.554;2023-05-23T02:23:21;75238.66;;;-143.60;64.71
68329;BME280;55182;56.864;60.554;2023-05-23T02:25:46;75228.63;;;-143.60;64.24
68329;BME280;55182;56.864;60.554;2023-05-23T02:28:12;75224.59;;;-143.60;66.01
68329;BME280;55182;56.864;60.554;2023-05-23T02:30:38;75222.59;;;-143.60;64.54
68329;BME280;55182;56.864;60.554;2023-05-23T02:33:04;75218.56;;;-143.60;63.82
68329;BME280;55182;56.864;60.554;2023-05-23T02:35:30;75204.50;;;-143.60;62.18
68329;BME280;55182;56.864;60.554;2023-05-23T02:37:56;75194.47;;;-143.60;62.10
68329;BME280;55182;56.864;60.554;2023-05-23T02:40:21;75180.41;;;-143.60;62.47
68329;BME280;55182;56.864;60.554;2023-05-23T02:42:47;75170.34;;;-143.60;60.06
68329;BME280;55182;56.864;60.554;2023-05-23T02:45:12;75154.28;;;-143.60;59.84
68329;BME280;55182;56.864;60.554;2023-05-23T02:47:37;75142.22;;;-143.60;58.87
68329;BME280;55182;56.864;60.554;2023-05-23T02:50:03;75124.16;;;-143.60;58.63
68329;BME280;55182;56.864;60.554;2023-05-23T02:52:29;75114.09;;;-143.60;58.33
68329;BME280;55182;56.864;60.554;2023-05-23T02:54:54;75094.00;;;-143.60;56.51
68329;BME280;55182;56.864;60.554;2023-05-23T02:57:20;75077.94;;;-143.60;56.98
68329;BME280;55182;56.864;60.554;2023-05-23T02:59:46;75069.91;;;-143.60;57.38
68329;BME280;55182;56.864;60.554;2023-05-23T03:02:11;75061.88;;;-143.60;58.19
68329;BME280;55182;56.864;60.554;2023-05-23T03:04:37;75053.84;;;-143.60;57.43
68329;BME280;55182;56.864;60.554;2023-05-23T03:07:02;75041.78;;;-143.60;57.56
68329;BME280;55182;56.864;60.554;2023-05-23T03:09:28;75025.72;;;-143.60;57.82
68329;BME280;55182;56.864;60.554;2023-05-23T03:11:53;75009.63;;;-143.60;57.18
68329;BME280;55182;56.864;60.554;2023-05-23T03:14:19;74993.56;;;-143.60;55.08
68329;BME280;55182;56.864;60.554;2023-05-23T03:16:44;74973.47;;;-143.60;55.41
68329;BME280;55182;56.864;60.554;2023-05-23T03:19:10;74953.41;;;-143.60;54.93
68329;BME280;55182;56.864;60.554;2023-05-23T03:21:36;74931.28;;;-143.60;55.78
68329;BME280;55182;56.864;60.554;2023-05-23T03:24:01;74915.22;;;-143.60;56.53
68329;BME280;55182;56.864;60.554;2023-05-23T03:26:28;74897.16;;;-143.60;56.41
68329;BME280;55182;56.864;60.554;2023-05-23T03:28:55;74881.06;;;-143.60;56.66
68329;BME280;55182;56.864;60.554;2023-05-23T03:31:20;74856.97;;;-143.60;56.53
68329;BME280;55182;56.864;60.554;2023-05-23T03:33:46;74834.88;;;-143.60;56.14
68329;BME280;55182;56.864;60.554;2023-05-23T03:36:11;74822.81;;;-143.60;54.82
68329;BME280;55182;56.864;60.554;2023-05-23T03:38:39;74808.75;;;-143.60;54.43
68329;BME280;55182;56.864;60.554;2023-05-23T03:41:04;74790.69;;;-143.60;53.85
68329;BME280;55182;56.864;60.554;2023-05-23T03:43:31;74768.56;;;-143.60;51.93
68329;BME280;55182;56.864;60.554;2023-05-23T03:45:57;74750.50;;;-143.60;51.46
68329;BME280;55182;56.864;60.554;2023-05-23T03:48:23;74736.44;;;-143.60;51.68
68329;BME280;55182;56.864;60.554;2023-05-23T03:50:49;74718.34;;;-143.60;51.25
68329;BME280;55182;56.864;60.554;2023-05-23T03:53:15;74702.28;;;-143.60;50.90
68329;BME280;55182;56.864;60.554;2023-05-23T03:55:40;74688.22;;;-143.60;50.08
68329;BME280;55182;56.864;60.554;2023-05-23T03:58:06;74676.19;;;-143.60;49.72
68329;BME280;55182;56.864;60.554;2023-05-23T04:00:31;74668.13;;;-143.60;47.93
68329;BME280;55182;56.864;60.554;2023-05-23T04:02:59;74652.06;;;-143.60;46.31
68329;BME280;55182;56.864;60.554;2023-05-23T04:05:24;74642.03;;;-143.60;41.63
68329;BME280;55182;56.864;60.554;2023-05-23T04:07:50;74621.94;;;-143.60;39.71
68329;BME280;55182;56.864;60.554;2023-05-23T04:10:16;74599.84;;;-143.60;38.82
68329;BME280;55182;56.864;60.554;2023-05-23T04:12:44;74575.75;;;-143.60;37.89
68329;BME280;55182;56.864;60.554;2023-05-23T04:15:16;74559.66;;;-143.60;37.31
68329;BME280;55182;56.864;60.554;2023-05-23T04:18:02;74543.59;;;-143.60;37.46
68329;BME280;55182;56.864;60.554;2023-05-23T04:20:29;74531.53;;;-143.60;36.40
68329;BME280;55182;56.864;60.554;2023-05-23T04:22:54;74509.44;;;-143.60;36.59
68329;BME280;55182;56.864;60.554;2023-05-23T04:25:23;74503.44;;;-143.60;36.97
68329;BME280;55182;56.864;60.554;2023-05-23T04:28:02;74487.34;;;-143.60;37.81
68329;BME280;55182;56.864;60.554;2023-05-23T04:30:27;74479.31;;;-143.60;37.06
68329;BME280;55182;56.864;60.554;2023-05-23T04:32:53;74467.28;;;-143.60;36.65
68329;BME280;55182;56.864;60.554;2023-05-23T04:35:20;74463.25;;;-143.60;37.27
68329;BME280;55182;56.864;60.554;2023-05-23T04:37:46;74457.22;;;-143.60;37.37
68329;BME280;55182;56.864;60.554;2023-05-23T04:40:12;74451.19;;;-143.60;36.26
68329;BME280;55182;56.864;60.554;2023-05-23T04:42:57;74427.09;;;-143.60;36.17
68329;BME280;55182;56.864;60.554;2023-05-23T04:45:32;74409.03;;;-143.60;36.45
68329;BME280;55182;56.864;60.554;2023-05-23T04:48:16;74398.97;;;-143.60;36.55
68329;BME280;55182;56.864;60.554;2023-05-23T04:50:43;74388.94;;;-143.60;36.36
68329;BME280;55182;56.864;60.554;2023-05-23T04:53:09;74370.84;;;-143.60;36.62
68329;BME280;55182;56.864;60.554;2023-05-23T04:55:35;74362.81;;;-143.60;36.02
68329;BME280;55182;56.864;60.554;2023-05-23T04:58:02;74338.72;;;-143.60;35.82
68329;BME280;55182;56.864;60.554;2023-05-23T05:00:27;74318.63;;;-143.60;36.02
68329;BME280;55182;56.864;60.554;2023-05-23T05:02:53;74306.59;;;-143.60;36.04
68329;BME280;55182;56.864;60.554;2023-05-23T05:05:22;74296.53;;;-143.60;35.97
68329;BME280;55182;56.864;60.554;2023-05-23T05:07:48;74282.47;;;-143.60;34.83
68329;BME280;55182;56.864;60.554;2023-05-23T05:10:15;74264.41;;;-143.60;35.80
68329;BME280;55182;56.864;60.554;2023-05-23T05:12:40;74248.34;;;-143.60;33.85
68329;BME280;55182;56.864;60.554;2023-05-23T05:15:06;74238.28;;;-143.60;33.05
68329;BME280;55182;56.864;60.554;2023-05-23T05:17:31;74218.22;;;-143.60;32.98
68329;BME280;55182;56.864;60.554;2023-05-23T05:20:05;74198.13;;;-143.60;32.78
68329;BME280;55182;56.864;60.554;2023-05-23T05:22:36;74178.03;;;-143.60;32.01
68329;BME280;55182;56.864;60.554;2023-05-23T05:25:03;74161.97;;;-143.60;32.24
68329;BME280;55182;56.864;60.554;2023-05-23T05:27:28;74149.91;;;-143.60;31.65
68329;BME280;55182;56.864;60.554;2023-05-23T05:29:55;74131.84;;;-143.60;30.84
68329;BME280;55182;56.864;60.554;2023-05-23T05:32:21;74113.75;;;-143.60;29.33
68329;BME280;55182;56.864;60.554;2023-05-23T05:34:49;74097.69;;;-143.60;29.58
68329;BME280;55182;56.864;60.554;2023-05-23T05:37:15;74079.63;;;-143.60;28.99
68329;BME280;55182;56.864;60.554;2023-05-23T05:39:43;74065.56;;;-143.60;28.99
68329;BME280;55182;56.864;60.554;2023-05-23T05:42:09;74043.47;;;-143.60;28.73
68329;BME280;55182;56.864;60.554;2023-05-23T05:44:35;74035.44;;;-143.60;28.95
68329;BME280;55182;56.864;60.554;2023-05-23T05:47:01;74021.38;;;-143.60;28.79
68329;BME280;55182;56.864;60.554;2023-05-23T05:49:28;74009.31;;;-143.60;29.09
68329;BME280;55182;56.864;60.554;2023-05-23T05:51:54;73993.25;;;-143.60;29.62
68329;BME280;55182;56.864;60.554;2023-05-23T05:54:20;73985.22;;;-143.60;28.36
68329;BME280;55182;56.864;60.554;2023-05-23T05:56:46;73971.16;;;-143.60;28.56
68329;BME280;55182;56.864;60.554;2023-05-23T05:59:12;73959.13;;;-143.60;28.53
68329;BME280;55182;56.864;60.554;2023-05-23T06:01:38;73955.09;;;-143.60;28.35
68329;BME280;55182;56.864;60.554;2023-05-23T06:04:04;73943.06;;;-143.60;27.03
68329;BME280;55182;56.864;60.554;2023-05-23T06:06:32;73929.00;;;-143.60;26.87
68329;BME280;55182;56.864;60.554;2023-05-23T06:08:58;73910.91;;;-143.60;27.24
68329;BME280;55182;56.864;60.554;2023-05-23T06:11:23;73906.91;;;-143.60;26.56
68329;BME280;55182;56.864;60.554;2023-05-23T06:13:50;73898.88;;;-143.60;26.40
68329;BME280;55182;56.864;60.554;2023-05-23T06:16:15;73880.78;;;-143.60;25.71
68329;BME280;55182;56.864;60.554;2023-05-23T06:18:43;73862.72;;;-143.60;25.22
68329;BME280;55182;56.864;60.554;2023-05-23T06:21:08;73852.69;;;-143.60;24.12
68329;BME280;55182;56.864;60.554;2023-05-23T06:23:35;73842.63;;;-143.60;24.56
68329;BME280;55182;56.864;60.554;2023-05-23T06:26:01;73832.59;;;-143.60;24.33
68329;BME280;55182;56.864;60.554;2023-05-23T06:28:27;73816.53;;;-143.60;24.15
68329;BME280;55182;56.864;60.554;2023-05-23T06:30:53;73796.44;;;-143.60;23.32
68329;BME280;55182;56.864;60.554;2023-05-23T06:33:18;73784.38;;;-143.60;23.68
68329;BME280;55182;56.864;60.554;2023-05-23T06:35:44;73772.34;;;-143.60;23.19
68329;BME280;55182;56.864;60.554;2023-05-23T06:38:10;73760.28;;;-143.60;22.54
68329;BME280;55182;56.864;60.554;2023-05-23T06:40:35;73740.22;;;-143.60;22.90
68329;BME280;55182;56.864;60.554;2023-05-23T06:43:02;73736.19;;;-143.60;22.82
68329;BME280;55182;56.864;60.554;2023-05-23T06:45:50;73720.13;;;-143.60;23.54
68329;BME280;55182;56.864;60.554;2023-05-23T06:48:16;73712.09;;;-143.60;23.46
68329;BME280;55182;56.864;60.554;2023-05-23T06:50:43;73700.03;;;-143.60;23.77
68329;BME280;55182;56.864;60.554;2023-05-23T06:53:10;73696.03;;;-143.60;25.30
68329;BME280;55182;56.864;60.554;2023-05-23T06:55:35;73690.00;;;-143.60;24.01
68329;BME280;55182;56.864;60.554;2023-05-23T06:58:01;73675.94;;;-143.60;24.28
68329;BME280;55182;56.864;60.554;2023-05-23T07:00:27;73655.88;;;-143.60;24.38
68329;BME280;55182;56.864;60.554;2023-05-23T07:03:16;73645.81;;;-143.60;24.78
68329;BME280;55182;56.864;60.554;2023-05-23T07:05:42;73631.75;;;-143.60;25.26
68329;BME280;55182;56.864;60.554;2023-05-23T07:08:09;73629.75;;;-143.60;25.27
68329;BME280;55182;56.864;60.554;2023-05-23T07:10:35;73619.72;;;-143.60;25.00
68329;BME280;55182;56.864;60.554;2023-05-23T07:13:13;73603.66;;;-143.60;24.51
68329;BME280;55182;56.864;60.554;2023-05-23T07:15:38;73601.63;;;-143.60;23.74
68329;BME280;55182;56.864;60.554;2023-05-23T07:18:09;73591.59;;;-143.60;23.45
68329;BME280;55182;56.864;60.554;2023-05-23T07:20:35;73579.56;;;-143.60;24.33
68329;BME280;55182;56.864;60.554;2023-05-23T07:23:09;73571.53;;;-143.60;23.81
68329;BME280;55182;56.864;60.554;2023-05-23T07:25:35;73555.44;;;-143.60;21.75
68329;BME280;55182;56.864;60.554;2023-05-23T07:28:02;73545.41;;;-143.60;22.36
68329;BME280;55182;56.864;60.554;2023-05-23T07:30:28;73533.38;;;-143.60;21.75
68329;BME280;55182;56.864;60.554;2023-05-23T07:32:53;73525.31;;;-143.60;22.59
68329;BME280;55182;56.864;60.554;2023-05-23T07:35:19;73513.28;;;-143.60;22.33
68329;BME280;55182;56.864;60.554;2023-05-23T07:37:45;73499.22;;;-143.60;22.20
68329;BME280;55182;56.864;60.554;2023-05-23T07:40:10;73479.13;;;-143.60;21.96
68329;BME280;55182;56.864;60.554;2023-05-23T07:42:36;73475.13;;;-143.60;22.14
68329;BME280;55182;56.864;60.554;2023-05-23T07:45:02;73469.09;;;-143.60;22.16
68329;BME280;55182;56.864;60.554;2023-05-23T07:47:27;73455.03;;;-143.60;22.44
68329;BME280;55182;56.864;60.554;2023-05-23T07:49:53;73438.97;;;-143.60;22.21
68329;BME280;55182;56.864;60.554;2023-05-23T07:52:19;73430.94;;;-143.60;21.48
68329;BME280;55182;56.864;60.554;2023-05-23T07:54:45;73414.88;;;-143.60;21.79
68329;BME280;55182;56.864;60.554;2023-05-23T07:57:11;73410.88;;;-143.60;22.09
68329;BME280;55182;56.864;60.554;2023-05-23T07:59:38;73402.84;;;-143.60;21.94
68329;BME280;55182;56.864;60.554;2023-05-23T08:02:04;73406.84;;;-143.60;21.94
68329;BME280;55182;56.864;60.554;2023-05-23T08:04:30;73388.78;;;-143.60;21.85
68329;BME280;55182;56.864;60.554;2023-05-23T08:06:55;73364.69;;;-143.60;22.10
68329;BME280;55182;56.864;60.554;2023-05-23T08:09:24;73352.63;;;-143.60;21.80
68329;BME280;55182;56.864;60.554;2023-05-23T08:11:53;73342.59;;;-143.60;21.66
68329;BME280;55182;56.864;60.554;2023-05-23T08:14:21;73338.56;;;-143.60;21.94
68329;BME280;55182;56.864;60.554;2023-05-23T08:17:09;73330.53;;;-143.60;22.27
68329;BME280;55182;56.864;60.554;2023-05-23T08:19:35;73314.47;;;-143.60;22.04
68329;BME280;55182;56.864;60.554;2023-05-23T08:22:01;73294.41;;;-143.60;22.35
68329;BME280;55182;56.864;60.554;2023-05-23T08:24:27;73282.34;;;-143.60;21.19
68329;BME280;55182;56.864;60.554;2023-05-23T08:26:52;73282.34;;;-143.60;21.30
68329;BME280;55182;56.864;60.554;2023-05-23T08:29:20;73286.38;;;-143.60;21.66
68329;BME280;55182;56.864;60.554;2023-05-23T08:31:46;73294.41;;;-143.60;22.23
68329;BME280;55182;56.864;60.554;2023-05-23T08:34:12;73302.44;;;-143.60;21.11
68329;BME280;55182;56.864;60.554;2023-05-23T08:36:38;73314.47;;;-143.60;21.31
68329;BME280;55182;56.864;60.554;2023-05-23T08:39:06;73322.50;;;-143.60;21.36
68329;BME280;55182;56.864;60.554;2023-05-23T08:41:37;73320.50;;;-143.60;21.30
68329;BME280;55182;56.864;60.554;2023-05-23T08:44:08;73314.47;;;-143.60;21.93
68329;BME280;55182;56.864;60.554;2023-05-23T08:46:41;73296.41;;;-143.60;22.02
68329;BME280;55182;56.864;60.554;2023-05-23T08:49:09;73280.34;;;-143.60;21.66
68329;BME280;55182;56.864;60.554;2023-05-23T08:51:37;73266.28;;;-143.60;20.86
68329;BME280;55182;56.864;60.554;2023-05-23T08:54:12;73270.31;;;-143.60;20.50
68329;BME280;55182;56.864;60.554;2023-05-23T08:56:38;73270.31;;;-143.60;21.12
68329;BME280;55182;56.864;60.554;2023-05-23T08:59:07;73288.38;;;-143.60;21.16
68329;BME280;55182;56.864;60.554;2023-05-23T09:01:34;73316.50;;;-143.60;21.53
68329;BME280;55182;56.864;60.554;2023-05-23T09:04:03;73330.53;;;-143.60;21.46
68329;BME280;55182;56.864;60.554;2023-05-23T09:06:39;73348.63;;;-143.60;20.97
68329;BME280;55182;56.864;60.554;2023-05-23T09:09:05;73354.63;;;-143.60;21.28
68329;BME280;55182;56.864;60.554;2023-05-23T09:11:31;73366.69;;;-143.60;21.29
68329;BME280;55182;56.864;60.554;2023-05-23T09:13:58;73368.69;;;-143.60;21.82
68329;BME280;55182;56.864;60.554;2023-05-23T09:16:24;73370.69;;;-143.60;21.48
68329;BME280;55182;56.864;60.554;2023-05-23T09:18:56;73376.72;;;-143.60;21.69
68329;BME280;55182;56.864;60.554;2023-05-23T09:21:24;73382.75;;;-143.60;21.53
68329;BME280;55182;56.864;60.554;2023-05-23T09:24:03;73380.75;;;-143.60;21.44
68329;BME280;55182;56.864;60.554;2023-05-23T09:26:30;73384.75;;;-143.60;21.49
68329;BME280;55182;56.864;60.554;2023-05-23T09:28:56;73374.72;;;-143.60;21.72
68329;BME280;55182;56.864;60.554;2023-05-23T09:31:25;73346.59;;;-143.60;21.82
68329;BME280;55182;56.864;60.554;2023-05-23T09:33:51;73318.50;;;-143.60;22.10
68329;BME280;55182;56.864;60.554;2023-05-23T09:36:19;73290.38;;;-143.60;22.21
68329;BME280;55182;56.864;60.554;2023-05-23T09:38:45;73262.28;;;-143.60;22.13
68329;BME280;55182;56.864;60.554;2023-05-23T09:41:12;73222.09;;;-143.60;20.91
68329;BME280;55182;56.864;60.554;2023-05-23T09:43:39;73185.97;;;-143.60;21.52
68329;BME280;55182;56.864;60.554;2023-05-23T09:46:14;73143.78;;;-143.60;20.75
68329;BME280;55182;56.864;60.554;2023-05-23T09:48:45;73161.88;;;-143.60;20.26
68329;BME280;55182;56.864;60.554;2023-05-23T09:51:10;73169.91;;;-143.60;20.48
68329;BME280;55182;56.864;60.554;2023-05-23T09:53:36;73179.94;;;-143.60;21.13
68329;BME280;55182;56.864;60.554;2023-05-23T09:56:02;73185.97;;;-143.60;20.85
68329;BME280;55182;56.864;60.554;2023-05-23T09:58:29;73189.97;;;-143.60;21.27
68329;BME280;55182;56.864;60.554;2023-05-23T10:00:55;73181.94;;;-143.60;21.52
68329;BME280;55182;56.864;60.554;2023-05-23T10:03:23;73192.00;;;-143.60;21.17
68329;BME280;55182;56.864;60.554;2023-05-23T10:05:50;73210.06;;;-143.60;20.68
68329;BME280;55182;56.864;60.554;2023-05-23T10:08:51;73228.13;;;-143.60;21.35
68329;BME280;55182;56.864;60.554;2023-05-23T10:13:58;73210.06;;;-143.60;20.90
68329;BME280;55182;56.864;60.554;2023-05-23T10:16:29;73210.06;;;-143.60;20.31
68329;BME280;55182;56.864;60.554;2023-05-23T10:18:58;73210.06;;;-143.60;21.20
68329;BME280;55182;56.864;60.554;2023-05-23T10:21:35;73206.03;;;-143.60;20.42
68329;BME280;55182;56.864;60.554;2023-05-23T10:24:03;73192.00;;;-143.60;20.99
68329;BME280;55182;56.864;60.554;2023-05-23T10:26:29;73181.94;;;-143.60;21.03
68329;BME280;55182;56.864;60.554;2023-05-23T10:28:55;73177.94;;;-143.60;20.81
68329;BME280;55182;56.864;60.554;2023-05-23T10:31:22;73192.00;;;-143.60;20.87
68329;BME280;55182;56.864;60.554;2023-05-23T10:33:59;73210.06;;;-143.60;20.98
68329;BME280;55182;56.864;60.554;2023-05-23T10:36:39;73212.06;;;-143.60;20.78
68329;BME280;55182;56.864;60.554;2023-05-23T10:41:54;73210.06;;;-143.60;20.92
68329;BME280;55182;56.864;60.554;2023-05-23T10:44:29;73206.03;;;-143.60;21.05
68329;BME280;55182;56.864;60.554;2023-05-23T10:52:08;73169.91;;;-143.60;20.57
68329;BME280;55182;56.864;60.554;2023-05-23T10:54:35;73161.88;;;-143.60;20.52
68329;BME280;55182;56.864;60.554;2023-05-23T10:57:01;73157.84;;;-143.60;20.80
68329;BME280;55182;56.864;60.554;2023-05-23T10:59:27;73155.84;;;-143.60;20.07
68329;BME280;55182;56.864;60.554;2023-05-23T11:01:53;73149.81;;;-143.60;20.53
68329;BME280;55182;56.864;60.554;2023-05-23T11:04:26;73149.81;;;-143.60;20.20
68329;BME280;55182;56.864;60.554;2023-05-23T11:06:53;73149.81;;;-143.60;20.58
68329;BME280;55182;56.864;60.554;2023-05-23T11:09:18;73145.81;;;-143.60;20.47
68329;BME280;55182;56.864;60.554;2023-05-23T11:14:16;73131.75;;;-143.60;20.36
68329;BME280;55182;56.864;60.554;2023-05-23T11:16:42;73133.75;;;-143.60;20.00
68329;BME280;55182;56.864;60.554;2023-05-23T11:21:44;73119.69;;;-143.60;20.72
68329;BME280;55182;56.864;60.554;2023-05-23T11:24:09;73125.72;;;-143.60;20.40
68329;BME280;55182;56.864;60.554;2023-05-23T11:26:35;73115.69;;;-143.60;19.97
68329;BME280;55182;56.864;60.554;2023-05-23T11:29:00;73101.63;;;-143.60;20.72
68329;BME280;55182;56.864;60.554;2023-05-23T11:31:26;73055.44;;;-143.60;20.14
68329;BME280;55182;56.864;60.554;2023-05-23T11:33:51;72969.09;;;-143.60;19.76
68329;BME280;55182;56.864;60.554;2023-05-23T11:36:17;72870.72;;;-143.60;19.80
68329;BME280;55182;56.864;60.554;2023-05-23T11:38:42;72792.41;;;-143.60;18.85
68329;BME280;55182;56.864;60.554;2023-05-23T11:41:08;72732.19;;;-143.60;18.77
68329;BME280;55182;56.864;60.554;2023-05-23T11:43:34;72696.03;;;-143.60;19.35
68329;BME280;55182;56.864;60.554;2023-05-23T11:46:06;72665.94;;;-143.60;18.57
68329;BME280;55182;56.864;60.554;2023-05-23T11:48:32;72605.69;;;-143.60;18.32
68329;BME280;55182;56.864;60.554;2023-05-23T11:50:57;72569.56;;;-143.60;18.45
68329;BME280;55182;56.864;60.554;2023-05-23T11:53:25;72557.50;;;-143.60;18.10
68329;BME280;55182;56.864;60.554;2023-05-23T11:55:52;72523.38;;;-143.60;18.23
68329;BME280;55182;56.864;60.554;2023-05-23T11:58:21;72519.38;;;-143.60;18.32
68329;BME280;55182;56.864;60.554;2023-05-23T12:00:50;72501.28;;;-143.60;18.11
68329;BME280;55182;56.864;60.554;2023-05-23T12:03:16;72481.22;;;-143.60;18.24
68329;BME280;55182;56.864;60.554;2023-05-23T12:05:42;72469.16;;;-143.60;18.51
68329;BME280;55182;56.864;60.554;2023-05-23T12:08:09;72451.09;;;-143.60;18.35
68329;BME280;55182;56.864;60.554;2023-05-23T12:10:35;72447.09;;;-143.60;18.15
68329;BME280;55182;56.864;60.554;2023-05-23T12:13:00;72437.06;;;-143.60;17.93
68329;BME280;55182;56.864;60.554;2023-05-23T12:15:27;72439.06;;;-143.60;17.94
68329;BME280;55182;56.864;60.554;2023-05-23T12:17:54;72447.09;;;-143.60;17.99
68329;BME280;55182;56.864;60.554;2023-05-23T12:20:20;72447.09;;;-143.60;18.07
68329;BME280;55182;56.864;60.554;2023-05-23T12:22:46;72431.03;;;-143.60;18.35
68329;BME280;55182;56.864;60.554;2023-05-23T12:25:11;72429.03;;;-143.60;18.37
68329;BME280;55182;56.864;60.554;2023-05-23T12:27:38;72404.94;;;-143.60;17.87
68329;BME280;55182;56.864;60.554;2023-05-23T12:30:05;72390.88;;;-143.60;18.62
68329;BME280;55182;56.864;60.554;2023-05-23T12:32:31;72384.84;;;-143.60;18.01
68329;BME280;55182;56.864;60.554;2023-05-23T12:34:58;72410.94;;;-143.60;17.77
68329;BME280;55182;56.864;60.554;2023-05-23T12:37:24;72423.00;;;-143.60;17.68
68329;BME280;55182;56.864;60.554;2023-05-23T12:39:50;72491.25;;;-143.60;17.68
68329;BME280;55182;56.864;60.554;2023-05-23T12:42:16;72547.47;;;-143.60;17.80
68329;BME280;55182;56.864;60.554;2023-05-23T12:44:41;72581.59;;;-143.60;18.25
68329;BME280;55182;56.864;60.554;2023-05-23T12:47:07;72563.53;;;-143.60;18.29
68329;BME280;55182;56.864;60.554;2023-05-23T12:49:32;72525.38;;;-143.60;17.47
68329;BME280;55182;56.864;60.554;2023-05-23T12:51:58;72497.28;;;-143.60;18.29